createdAt,value
2023-02-24T00:01:14.075Z,95839.50
2023-02-24T00:03:40.401Z,95837.28
2023-02-24T00:06:06.698Z,95841.47
2023-02-24T00:08:32.994Z,95836.13
2023-02-24T00:10:59.281Z,95840.97
2023-02-24T00:13:25.562Z,95830.34
2023-02-24T00:15:51.884Z,95829.81
2023-02-24T00:18:18.156Z,95830.88
2023-02-24T00:20:44.439Z,95825.31
2023-02-24T00:23:10.745Z,95826.25
2023-02-24T00:25:37.023Z,95826.16
2023-02-24T00:28:03.309Z,95826.09
2023-02-24T00:30:29.625Z,95826.84
2023-02-24T00:32:55.999Z,95815.34
2023-02-24T00:35:22.327Z,95818.56
2023-02-24T00:37:48.627Z,95819.88
2023-02-24T00:40:14.906Z,95819.34
2023-02-24T00:42:41.189Z,95825.69
2023-02-24T00:45:07.494Z,95824.81
2023-02-24T00:47:33.776Z,95819.97
2023-02-24T00:50:00.098Z,95821.53
2023-02-24T00:52:26.405Z,95815.28
2023-02-24T00:54:52.705Z,95809.53
2023-02-24T00:57:19.002Z,95809.78
2023-02-24T00:59:45.313Z,95805.56
2023-02-24T01:02:11.626Z,95795.78
2023-02-24T01:04:37.980Z,95790.22
2023-02-24T01:07:04.294Z,95790.94
2023-02-24T01:09:30.610Z,95785.81
2023-02-24T01:11:57.030Z,95782.28
2023-02-24T01:14:23.362Z,95772.19
2023-02-24T01:16:49.649Z,95776.47
2023-02-24T01:19:15.927Z,95778.44
2023-02-24T01:21:42.269Z,95787.53
2023-02-24T01:24:08.557Z,95793.47
2023-02-24T01:26:34.844Z,95789.75
2023-02-24T01:29:01.140Z,95794.00
2023-02-24T01:31:27.499Z,95795.56
2023-02-24T01:33:53.821Z,95795.22
2023-02-24T01:36:20.134Z,95791.28
2023-02-24T01:38:46.501Z,95790.97
2023-02-24T01:41:12.785Z,95792.25
2023-02-24T01:43:39.080Z,95791.38
2023-02-24T01:46:05.360Z,95799.03
2023-02-24T01:48:31.653Z,95803.63
2023-02-24T01:50:57.953Z,95801.84
2023-02-24T01:53:24.251Z,95803.38
2023-02-24T01:55:50.553Z,95795.97
2023-02-24T01:58:16.893Z,95802.03
2023-02-24T02:00:43.176Z,95791.97
2023-02-24T02:03:09.468Z,95795.53
2023-02-24T02:05:35.772Z,95790.63
2023-02-24T02:08:02.204Z,95781.75
2023-02-24T02:10:28.557Z,95791.13
2023-02-24T02:12:54.889Z,95782.09
2023-02-24T02:15:21.168Z,95775.84
2023-02-24T02:17:47.463Z,95767.66
2023-02-24T02:20:13.793Z,95766.13
2023-02-24T02:22:40.075Z,95764.84
2023-02-24T02:38:29.325Z,95757.28
2023-02-24T02:40:55.621Z,95760.00
2023-02-24T02:43:21.911Z,95759.81
2023-02-24T02:45:48.272Z,95754.25
2023-02-24T02:48:14.604Z,95755.69
2023-02-24T02:50:40.873Z,95754.06
2023-02-24T02:53:07.186Z,95752.44
2023-02-24T02:55:33.478Z,95756.38
2023-02-24T02:57:59.778Z,95755.53
2023-02-24T03:00:26.105Z,95754.16
2023-02-24T03:02:52.401Z,95749.53
2023-02-24T03:05:18.698Z,95744.16
2023-02-24T03:07:45.135Z,95739.47
2023-02-24T03:10:11.439Z,95739.88
2023-02-24T03:12:37.721Z,95730.91
2023-02-24T03:15:04.029Z,95730.47
2023-02-24T03:17:30.315Z,95738.66
2023-02-24T03:19:56.600Z,95724.81
2023-02-24T03:22:23.131Z,95734.50
2023-02-24T03:24:49.447Z,95729.16
2023-02-24T03:27:15.717Z,95728.28
2023-02-24T03:29:42.023Z,95729.50
2023-02-24T03:32:08.461Z,95720.47
2023-02-24T03:34:34.838Z,95723.94
2023-02-24T03:37:01.173Z,95729.50
2023-02-24T03:39:27.457Z,95727.25
2023-02-24T03:41:53.731Z,95734.09
2023-02-24T03:44:20.039Z,95727.06
2023-02-24T03:46:46.325Z,95724.47
2023-02-24T03:49:12.598Z,95717.50
2023-02-24T03:51:38.895Z,95723.59
2023-02-24T03:54:05.180Z,95725.06
2023-02-24T03:56:31.477Z,95716.81
2023-02-24T03:58:57.781Z,95722.75
2023-02-24T04:01:24.062Z,95720.91
2023-02-24T04:03:50.351Z,95724.13
2023-02-24T04:06:16.651Z,95738.44
2023-02-24T04:08:43.043Z,95740.53
2023-02-24T04:11:09.316Z,95746.75
2023-02-24T04:13:35.612Z,95743.25
2023-02-24T04:16:01.971Z,95728.88
2023-02-24T04:18:28.400Z,95738.75
2023-02-24T04:20:54.699Z,95741.75
2023-02-24T04:23:20.990Z,95738.00
2023-02-24T04:25:47.280Z,95738.09
2023-02-24T04:28:13.602Z,95740.22
2023-02-24T04:30:39.948Z,95735.13
2023-02-24T04:33:06.292Z,95734.53
2023-02-24T04:35:32.598Z,95736.81
2023-02-24T04:37:58.884Z,95730.94
2023-02-24T04:40:25.188Z,95730.09
2023-02-24T04:42:51.529Z,95724.22
2023-02-24T04:45:19.007Z,95716.75
2023-02-24T04:47:45.296Z,95721.31
2023-02-24T04:50:11.596Z,95721.13
2023-02-24T04:52:37.875Z,95719.66
2023-02-24T04:55:04.167Z,95705.91
2023-02-24T04:57:30.465Z,95718.22
2023-02-24T04:59:56.769Z,95719.69
2023-02-24T05:02:23.051Z,95714.22
2023-02-24T05:04:49.394Z,95720.28
2023-02-24T05:07:15.713Z,95708.50
2023-02-24T05:09:42.000Z,95705.97
2023-02-24T05:12:08.301Z,95695.06
2023-02-24T05:14:34.592Z,95688.72
2023-02-24T05:17:00.884Z,95693.91
2023-02-24T05:19:27.203Z,95694.25
2023-02-24T05:21:53.482Z,95697.84
2023-02-24T05:24:19.774Z,95694.38
2023-02-24T05:26:46.084Z,95688.84
2023-02-24T05:29:12.395Z,95682.34
2023-02-24T05:31:38.855Z,95674.13
2023-02-24T05:34:05.230Z,95675.66
2023-02-24T05:36:31.528Z,95669.22
2023-02-24T05:38:57.835Z,95668.63
2023-02-24T05:41:24.137Z,95665.69
2023-02-24T05:43:50.426Z,95669.84
2023-02-24T05:46:16.774Z,95673.47
2023-02-24T05:48:43.134Z,95678.00
2023-02-24T05:51:09.408Z,95672.59
2023-02-24T05:53:35.690Z,95673.81
2023-02-24T05:56:01.986Z,95666.34
2023-02-24T05:58:28.262Z,95662.00
2023-02-24T06:00:54.550Z,95658.78
2023-02-24T06:03:20.876Z,95649.41
2023-02-24T06:05:47.172Z,95653.50
2023-02-24T06:08:13.457Z,95651.94
2023-02-24T06:10:39.831Z,95653.66
2023-02-24T06:13:06.115Z,95653.78
2023-02-24T06:15:32.392Z,95645.97
2023-02-24T06:17:58.709Z,95642.38
2023-02-24T06:20:24.997Z,95649.38
2023-02-24T06:22:51.271Z,95640.59
2023-02-24T06:25:17.582Z,95647.25
2023-02-24T06:27:44.091Z,95648.19
2023-02-24T06:30:10.579Z,95652.16
2023-02-24T06:32:37.075Z,95658.69
2023-02-24T06:35:03.447Z,95650.72
2023-02-24T06:37:29.741Z,95655.09
2023-02-24T06:39:56.052Z,95659.84
2023-02-24T06:42:22.349Z,95659.84
2023-02-24T06:44:48.728Z,95654.69
2023-02-24T06:47:15.062Z,95668.88
2023-02-24T06:49:41.343Z,95666.88
2023-02-24T06:52:07.634Z,95665.66
2023-02-24T06:54:33.983Z,95672.50
2023-02-24T06:57:00.290Z,95678.53
2023-02-24T06:59:26.576Z,95668.50
2023-02-24T07:01:52.877Z,95668.22
2023-02-24T07:04:22.292Z,95659.28
2023-02-24T07:06:48.618Z,95665.50
2023-02-24T07:09:14.918Z,95667.06
2023-02-24T07:11:41.202Z,95662.63
2023-02-24T07:14:07.492Z,95665.19
2023-02-24T07:16:33.848Z,95660.66
2023-02-24T07:19:00.158Z,95657.69
2023-02-24T07:21:26.487Z,95661.66
2023-02-24T07:23:52.812Z,95666.09
2023-02-24T07:26:19.105Z,95665.28
2023-02-24T07:28:45.392Z,95663.72
2023-02-24T07:31:11.804Z,95666.31
2023-02-24T07:33:38.272Z,95662.94
2023-02-24T07:36:04.563Z,95662.16
2023-02-24T07:38:30.874Z,95654.44
2023-02-24T07:40:57.171Z,95647.66
2023-02-24T07:43:23.558Z,95649.91
2023-02-24T07:45:49.901Z,95646.03
2023-02-24T07:48:16.224Z,95645.88
2023-02-24T07:50:42.515Z,95657.84
2023-02-24T07:53:08.849Z,95652.63
2023-02-24T07:55:35.134Z,95651.72
2023-02-24T07:58:01.530Z,95648.47
2023-02-24T08:00:27.925Z,95648.16
2023-02-24T08:02:54.290Z,95645.38
2023-02-24T08:05:20.669Z,95640.22
2023-02-24T08:07:47.014Z,95640.91
2023-02-24T08:10:13.303Z,95638.97
2023-02-24T08:12:39.613Z,95635.56
2023-02-24T08:15:05.916Z,95623.91
2023-02-24T08:17:32.233Z,95630.09
2023-02-24T08:19:58.528Z,95620.56
2023-02-24T08:22:24.833Z,95619.44
2023-02-24T08:24:51.129Z,95613.69
2023-02-24T08:27:17.444Z,95619.94
2023-02-24T08:29:43.755Z,95611.13
2023-02-24T08:32:10.172Z,95616.25
2023-02-24T08:34:36.553Z,95618.03
2023-02-24T08:37:02.883Z,95607.44
2023-02-24T08:39:29.190Z,95603.69
2023-02-24T08:41:55.477Z,95600.75
2023-02-24T08:44:21.787Z,95607.28
2023-02-24T08:46:48.112Z,95600.53
2023-02-24T08:49:14.443Z,95596.53
2023-02-24T08:51:40.766Z,95594.56
2023-02-24T08:54:07.055Z,95596.84
2023-02-24T08:56:33.336Z,95590.84
2023-02-24T08:58:59.720Z,95587.81
2023-02-24T09:01:26.170Z,95579.66
2023-02-24T09:03:52.563Z,95578.03
2023-02-24T09:06:18.933Z,95573.50
2023-02-24T09:08:45.234Z,95578.94
2023-02-24T09:11:11.605Z,95573.94
2023-02-24T09:13:37.917Z,95572.13
2023-02-24T09:16:04.212Z,95570.22
2023-02-24T09:18:30.564Z,95566.19
2023-02-24T09:20:56.896Z,95565.38
2023-02-24T09:23:23.187Z,95563.69
2023-02-24T09:25:49.564Z,95566.78
2023-02-24T09:28:16.020Z,95572.78
2023-02-24T09:30:42.454Z,95571.06
2023-02-24T09:33:08.935Z,95570.84
2023-02-24T09:35:35.339Z,95562.63
2023-02-24T09:38:01.656Z,95557.69
2023-02-24T09:40:27.986Z,95559.13
2023-02-24T09:42:54.326Z,95563.31
2023-02-24T09:45:20.666Z,95560.56
2023-02-24T09:47:46.981Z,95555.34
2023-02-24T09:50:13.298Z,95550.00
2023-02-24T09:52:39.690Z,95544.75
2023-02-24T09:55:06.112Z,95538.25
2023-02-24T09:57:32.466Z,95538.75
2023-02-24T09:59:58.845Z,95528.56
2023-02-24T10:02:25.136Z,95519.25
2023-02-24T10:04:51.461Z,95515.88
2023-02-24T10:07:17.813Z,95514.88
2023-02-24T10:09:44.092Z,95507.50
2023-02-24T10:12:10.454Z,95498.84
2023-02-24T10:14:42.906Z,95489.50
2023-02-24T10:17:10.205Z,95502.13
2023-02-24T10:19:36.503Z,95504.34
2023-02-24T10:22:02.853Z,95496.31
2023-02-24T10:24:29.244Z,95497.59
2023-02-24T10:27:07.451Z,95494.78
2023-02-24T10:29:34.408Z,95498.41
2023-02-24T10:32:00.829Z,95490.88
2023-02-24T10:34:27.263Z,95491.22
2023-02-24T10:36:53.584Z,95489.16
2023-02-24T10:39:19.874Z,95488.75
2023-02-24T10:41:46.185Z,95476.59
2023-02-24T10:44:12.537Z,95477.38
2023-02-24T10:46:41.949Z,95472.94
2023-02-24T10:49:08.838Z,95475.84
2023-02-24T10:51:35.154Z,95472.63
2023-02-24T10:54:01.485Z,95465.72
2023-02-24T10:56:27.783Z,95457.66
2023-02-24T10:58:54.098Z,95464.97
2023-02-24T11:01:20.740Z,95465.91
2023-02-24T11:03:47.194Z,95468.09
2023-02-24T11:06:13.494Z,95460.03
2023-02-24T11:08:39.881Z,95452.41
2023-02-24T11:11:06.254Z,95454.28
2023-02-24T11:13:32.616Z,95443.13
2023-02-24T11:16:00.193Z,95437.91
2023-02-24T11:18:26.500Z,95437.97
2023-02-24T11:20:52.825Z,95441.31
2023-02-24T11:23:19.125Z,95432.19
2023-02-24T11:25:45.424Z,95431.28
2023-02-24T11:28:11.737Z,95426.44
2023-02-24T11:30:38.056Z,95423.69
2023-02-24T11:33:04.369Z,95418.94
2023-02-24T11:35:30.679Z,95415.88
2023-02-24T11:37:56.977Z,95406.59
2023-02-24T11:40:23.282Z,95404.59
2023-02-24T11:42:49.599Z,95402.09
2023-02-24T11:45:15.896Z,95394.31
2023-02-24T11:47:42.207Z,95382.88
2023-02-24T11:50:08.510Z,95383.31
2023-02-24T11:52:34.799Z,95374.41
2023-02-24T11:55:01.097Z,95377.66
2023-02-24T11:57:27.416Z,95382.31
2023-02-24T11:59:53.730Z,95376.19
2023-02-24T12:02:20.031Z,95365.19
2023-02-24T12:04:46.366Z,95356.34
2023-02-24T12:07:12.651Z,95347.94
2023-02-24T12:09:38.940Z,95345.78
2023-02-24T12:12:05.256Z,95345.88
2023-02-24T12:14:31.564Z,95333.97
2023-02-24T12:16:58.123Z,95335.13
2023-02-24T12:19:24.503Z,95325.81
2023-02-24T12:21:50.802Z,95322.16
2023-02-24T12:24:17.093Z,95315.41
2023-02-24T12:26:43.426Z,95310.38
2023-02-24T12:29:09.747Z,95309.06
2023-02-24T12:31:36.099Z,95310.06
2023-02-24T12:34:02.439Z,95301.50
2023-02-24T12:36:30.853Z,95301.50
2023-02-24T12:38:57.300Z,95305.13
2023-02-24T12:41:23.873Z,95288.19
2023-02-24T12:43:50.256Z,95283.53
2023-02-24T12:46:16.584Z,95279.94
2023-02-24T12:48:42.937Z,95282.09
2023-02-24T12:51:09.249Z,95286.00
2023-02-24T12:53:35.548Z,95287.44
2023-02-24T12:56:02.053Z,95272.06
2023-02-24T12:58:28.513Z,95269.19
2023-02-24T13:00:54.870Z,95247.69
2023-02-24T13:03:21.269Z,95264.88
2023-02-24T13:05:47.596Z,95256.63
2023-02-24T13:08:13.884Z,95253.31
2023-02-24T13:10:40.249Z,95251.22
2023-02-24T13:13:06.543Z,95253.59
2023-02-24T13:15:32.843Z,95251.91
2023-02-24T13:17:59.193Z,95243.75
2023-02-24T13:20:25.473Z,95239.13
2023-02-24T13:22:51.780Z,95238.84
2023-02-24T13:25:18.114Z,95233.16
2023-02-24T13:27:44.429Z,95230.31
2023-02-24T13:30:10.771Z,95224.69
2023-02-24T13:32:37.223Z,95234.41
2023-02-24T13:35:03.610Z,95222.75
2023-02-24T13:37:29.917Z,95220.97
2023-02-24T13:39:56.242Z,95217.81
2023-02-24T13:42:22.533Z,95218.03
2023-02-24T13:44:48.823Z,95204.88
2023-02-24T13:47:15.130Z,95207.44
2023-02-24T13:49:41.429Z,95217.31
2023-02-24T13:52:07.711Z,95206.22
2023-02-24T13:54:34.035Z,95198.00
2023-02-24T13:57:00.344Z,95195.03
2023-02-24T13:59:26.642Z,95194.66
2023-02-24T14:01:53.058Z,95192.34
2023-02-24T14:04:19.377Z,95187.66
2023-02-24T14:06:45.674Z,95187.31
2023-02-24T14:09:12.078Z,95187.72
2023-02-24T14:11:38.395Z,95177.78
2023-02-24T14:14:04.695Z,95178.19
2023-02-24T14:16:31.085Z,95177.63
2023-02-24T14:18:57.393Z,95181.56
2023-02-24T14:21:23.693Z,95176.84
2023-02-24T14:23:50.016Z,95169.00
2023-02-24T14:26:16.334Z,95171.59
2023-02-24T14:28:42.638Z,95168.31
2023-02-24T14:31:09.069Z,95159.28
2023-02-24T14:33:35.478Z,95160.81
2023-02-24T14:36:01.788Z,95153.66
2023-02-24T14:38:28.143Z,95143.88
2023-02-24T14:40:54.432Z,95148.31
2023-02-24T14:43:20.785Z,95149.28
2023-02-24T14:45:47.097Z,95153.81
2023-02-24T14:48:13.398Z,95154.78
2023-02-24T14:50:39.701Z,95149.88
2023-02-24T14:53:06.024Z,95151.84
2023-02-24T14:55:32.509Z,95147.78
2023-02-24T14:57:58.919Z,95140.75
2023-02-24T15:00:25.235Z,95142.53
2023-02-24T15:02:51.601Z,95142.75
2023-02-24T15:05:17.944Z,95134.31
2023-02-24T15:07:44.365Z,95136.00
2023-02-24T15:10:10.671Z,95130.19
2023-02-24T15:12:36.965Z,95129.13
2023-02-24T15:15:03.434Z,95119.94
2023-02-24T15:17:29.725Z,95119.91
2023-02-24T15:19:56.012Z,95115.47
2023-02-24T15:22:22.325Z,95115.34
2023-02-24T15:24:48.622Z,95111.69
2023-02-24T15:27:15.095Z,95107.16
2023-02-24T15:29:41.443Z,95110.69
2023-02-24T15:32:07.848Z,95105.94
2023-02-24T15:34:34.604Z,95100.09
2023-02-24T15:37:01.033Z,95104.47
2023-02-24T15:39:27.328Z,95099.47
2023-02-24T15:41:53.613Z,95099.91
2023-02-24T15:44:19.931Z,95099.47
2023-02-24T15:46:46.268Z,95090.88
2023-02-24T15:49:12.566Z,95087.31
2023-02-24T15:51:38.889Z,95088.72
2023-02-24T15:54:05.200Z,95084.38
2023-02-24T15:56:31.512Z,95091.22
2023-02-24T15:58:57.820Z,95089.38
2023-02-24T16:01:24.117Z,95089.78
2023-02-24T16:03:50.459Z,95082.69
2023-02-24T16:06:16.761Z,95081.22
2023-02-24T16:08:43.050Z,95080.28
2023-02-24T16:11:09.337Z,95079.91
2023-02-24T16:13:35.655Z,95085.41
2023-02-24T16:16:02.034Z,95071.78
2023-02-24T16:18:28.355Z,95076.91
2023-02-24T16:20:54.937Z,95078.66
2023-02-24T16:23:21.305Z,95080.16
2023-02-24T16:25:47.600Z,95074.59
2023-02-24T16:28:13.912Z,95072.97
2023-02-24T16:30:40.357Z,95059.50
2023-02-24T16:33:06.923Z,95063.34
2023-02-24T16:35:33.302Z,95069.88
2023-02-24T16:37:59.580Z,95066.84
2023-02-24T16:40:25.867Z,95063.00
2023-02-24T16:42:52.229Z,95070.88
2023-02-24T16:45:18.745Z,95069.13
2023-02-24T16:47:45.092Z,95067.50
2023-02-24T16:50:11.410Z,95065.41
2023-02-24T16:52:37.718Z,95065.13
2023-02-24T16:55:04.003Z,95060.78
2023-02-24T16:57:30.310Z,95071.19
2023-02-24T16:59:56.618Z,95071.44
2023-02-24T17:02:22.917Z,95067.47
2023-02-24T17:04:49.216Z,95066.34
2023-02-24T17:07:15.502Z,95067.38
2023-02-24T17:09:41.778Z,95064.91
2023-02-24T17:12:08.088Z,95070.88
2023-02-24T17:14:34.366Z,95073.53
2023-02-24T17:17:00.750Z,95076.75
2023-02-24T17:19:27.161Z,95085.41
2023-02-24T17:21:53.453Z,95076.31
2023-02-24T17:24:19.749Z,95080.25
2023-02-24T17:26:46.076Z,95099.06
2023-02-24T17:29:12.362Z,95104.97
2023-02-24T17:31:38.987Z,95108.16
2023-02-24T17:34:06.419Z,95107.81
2023-02-24T17:36:32.750Z,95100.91
2023-02-24T17:38:59.054Z,95107.81
2023-02-24T17:41:25.485Z,95107.28
2023-02-24T17:43:51.870Z,95106.97
2023-02-24T17:46:18.216Z,95104.59
2023-02-24T17:48:44.563Z,95099.88
2023-02-24T17:51:10.839Z,95086.88
2023-02-24T17:53:37.122Z,95090.78
2023-02-24T17:56:03.592Z,95086.22
2023-02-24T17:58:29.933Z,95087.41
2023-02-24T18:00:56.242Z,95090.47
2023-02-24T18:03:22.648Z,95083.69
2023-02-24T18:05:48.964Z,95090.66
2023-02-24T18:08:15.241Z,95093.63
2023-02-24T18:10:41.533Z,95099.31
2023-02-24T18:13:07.819Z,95088.63
2023-02-24T18:15:34.098Z,95097.66
2023-02-24T18:18:00.395Z,95096.06
2023-02-24T18:20:26.723Z,95094.75
2023-02-24T18:22:53.006Z,95106.34
2023-02-24T18:25:19.317Z,95100.13
2023-02-24T18:27:45.617Z,95104.13
2023-02-24T18:30:11.913Z,95098.38
2023-02-24T18:32:38.327Z,95113.09
2023-02-24T18:35:04.655Z,95109.84
2023-02-24T18:37:30.941Z,95108.13
2023-02-24T18:39:57.236Z,95121.53
2023-02-24T18:42:23.535Z,95112.13
2023-02-24T18:44:49.808Z,95114.16
2023-02-24T18:47:16.154Z,95103.72
2023-02-24T18:49:42.425Z,95108.34
2023-02-24T18:52:08.730Z,95113.00
2023-02-24T18:54:35.120Z,95109.88
2023-02-24T18:57:01.400Z,95116.63
2023-02-24T18:59:27.693Z,95107.97
2023-02-24T19:01:54.048Z,95110.91
2023-02-24T19:04:20.358Z,95114.94
2023-02-24T19:06:46.642Z,95123.13
2023-02-24T19:09:12.966Z,95110.47
2023-02-24T19:11:39.245Z,95118.59
2023-02-24T19:14:05.553Z,95101.00
2023-02-24T19:16:31.939Z,95104.28
2023-02-24T19:18:58.251Z,95108.63
2023-02-24T19:21:24.546Z,95107.34
2023-02-24T19:23:50.853Z,95106.22
2023-02-24T19:26:17.138Z,95112.44
2023-02-24T19:28:43.427Z,95103.84
2023-02-24T19:31:09.812Z,95110.28
2023-02-24T19:33:36.215Z,95112.28
2023-02-24T19:36:02.542Z,95116.91
2023-02-24T19:38:28.850Z,95125.22
2023-02-24T19:40:55.138Z,95127.41
2023-02-24T19:43:21.426Z,95124.84
2023-02-24T19:45:47.761Z,95149.19
2023-02-24T19:48:14.054Z,95156.97
2023-02-24T19:50:40.345Z,95146.44
2023-02-24T19:53:06.641Z,95125.06
2023-02-24T19:55:32.920Z,95124.91
2023-02-24T19:57:59.207Z,95129.41
2023-02-24T20:00:25.566Z,95122.59
2023-02-24T20:02:51.855Z,95127.81
2023-02-24T20:05:18.138Z,95127.06
2023-02-24T20:07:44.457Z,95147.38
2023-02-24T20:10:10.752Z,95158.03
2023-02-24T20:12:37.069Z,95160.84
2023-02-24T20:15:03.389Z,95164.72
2023-02-24T20:17:29.661Z,95157.28
2023-02-24T20:19:55.949Z,95154.94
2023-02-24T20:22:22.253Z,95158.53
2023-02-24T20:24:48.537Z,95166.25
2023-02-24T20:27:14.824Z,95153.41
2023-02-24T20:29:41.128Z,95144.25
2023-02-24T20:32:07.513Z,95151.41
2023-02-24T20:34:33.895Z,95159.16
2023-02-24T20:37:00.202Z,95173.69
2023-02-24T20:39:26.488Z,95156.94
2023-02-24T20:41:52.825Z,95186.03
2023-02-24T20:44:19.126Z,95187.69
2023-02-24T20:46:45.408Z,95176.97
2023-02-24T20:49:11.723Z,95184.13
2023-02-24T20:51:38.046Z,95167.56
2023-02-24T20:54:04.331Z,95174.72
2023-02-24T20:56:30.624Z,95174.19
2023-02-24T20:58:56.944Z,95167.41
2023-02-24T21:01:23.274Z,95158.63
2023-02-24T21:03:49.601Z,95171.66
2023-02-24T21:06:15.952Z,95166.25
2023-02-24T21:08:42.334Z,95163.28
2023-02-24T21:11:10.977Z,95166.13
2023-02-24T21:13:37.459Z,95166.75
2023-02-24T21:16:03.783Z,95185.19
2023-02-24T21:18:30.233Z,95196.06
2023-02-24T21:20:56.552Z,95185.66
2023-02-24T21:23:22.833Z,95188.63
2023-02-24T21:25:49.116Z,95203.63
2023-02-24T21:28:15.411Z,95199.75
2023-02-24T21:30:41.767Z,95198.06
2023-02-24T21:33:08.068Z,95195.56
2023-02-24T21:35:34.370Z,95194.75
2023-02-24T21:38:00.747Z,95187.50
2023-02-24T21:40:27.047Z,95191.56
2023-02-24T21:42:53.354Z,95185.72
2023-02-24T21:45:20.839Z,95180.63
2023-02-24T21:47:47.139Z,95181.91
2023-02-24T21:50:13.443Z,95193.41
2023-02-24T21:52:39.722Z,95211.34
2023-02-24T21:55:06.011Z,95200.50
2023-02-24T21:57:32.320Z,95196.72
2023-02-24T21:59:58.602Z,95198.25
2023-02-24T22:02:24.876Z,95215.72
2023-02-24T22:04:52.261Z,95205.22
2023-02-24T22:07:18.544Z,95202.06
2023-02-24T22:09:44.831Z,95189.66
2023-02-24T22:12:11.167Z,95192.78
2023-02-24T22:14:37.444Z,95192.38
2023-02-24T22:17:03.732Z,95218.13
2023-02-24T22:19:30.037Z,95238.69
2023-02-24T22:21:56.325Z,95232.41
2023-02-24T22:24:22.600Z,95243.13
2023-02-24T22:26:48.912Z,95249.72
2023-02-24T22:29:15.197Z,95251.72
2023-02-24T22:31:41.603Z,95246.22
2023-02-24T22:34:07.953Z,95228.78
2023-02-24T22:36:34.238Z,95218.44
2023-02-24T22:39:00.515Z,95221.38
2023-02-24T22:41:26.837Z,95226.28
2023-02-24T22:43:53.112Z,95234.06
2023-02-24T22:46:19.471Z,95231.38
2023-02-24T22:48:45.784Z,95245.00
2023-02-24T22:51:12.076Z,95257.91
2023-02-24T22:53:38.363Z,95257.78
2023-02-24T22:56:04.658Z,95263.78
2023-02-24T22:58:30.933Z,95279.13
2023-02-24T23:00:57.217Z,95279.34
2023-02-24T23:03:23.682Z,95265.81
2023-02-24T23:05:49.989Z,95274.03
2023-02-24T23:08:16.273Z,95270.31
2023-02-24T23:10:42.576Z,95270.53
2023-02-24T23:13:08.862Z,95271.25
2023-02-24T23:15:35.179Z,95281.59
2023-02-24T23:18:01.535Z,95286.72
2023-02-24T23:20:27.817Z,95278.56
2023-02-24T23:22:54.114Z,95290.47
2023-02-24T23:25:20.416Z,95285.09
2023-02-24T23:27:46.711Z,95282.06
2023-02-24T23:30:12.987Z,95295.44
2023-02-24T23:32:40.579Z,95279.97
2023-02-24T23:35:06.892Z,95280.16
2023-02-24T23:37:33.177Z,95278.41
2023-02-24T23:39:59.459Z,95265.50
2023-02-24T23:42:25.731Z,95270.47
2023-02-24T23:44:52.028Z,95272.59
2023-02-24T23:47:18.364Z,95273.81
2023-02-24T23:49:48.372Z,95270.56
2023-02-24T23:52:14.973Z,95283.00
2023-02-24T23:54:41.282Z,95286.31
2023-02-24T23:57:07.703Z,95275.84
2023-02-24T23:59:34.029Z,95275.72
